• Join FlightAware (Why Join?)
  • Login
  • US Flag 
11:44PM EDT


 

Airport Tracker/Info


-or-


 

Live Flight TrackerFlight Track Log ✈ FFT919 ✈ 07-Jul-2013 ✈ KTTN - KRDU

Flight Track Log - Related Links

Times and Time Zones

All times are in EDT time to prevent confusion due to time zone crossing. See the FFT919 flight status page for this flight to view local times or setup timezone preferences in your user account.

Time Position Orientation Groundspeed Altitude Reporting Facility
EDT Latitude Longitude Course Direction KTS MPH feet Rate Location/Type
02:12PM 40.2667 -74.8333 217° Southwest 105 121 900  Level Philadelphia TRACON
02:13PM 40.2500 -74.8500 217° Southwest 145 167 2,000 1,500 Climbing Philadelphia TRACON
02:14PM 40.2000 -74.9167 226° Southwest 265 305 3,300 1,920 Climbing Philadelphia TRACON
02:15PM 40.1500 -74.9667 217° Southwest 260 299 5,900 1,800 Climbing Philadelphia TRACON
02:16PM 40.0833 -75.0167 210° Southwest 264 304 7,000 900 Climbing Philadelphia TRACON
02:17PM 40.0167 -75.0667 210° Southwest 274 315 7,800 1,500 Climbing Philadelphia TRACON
02:18PM 39.9500 -75.1000 201° Southwest 281 323 10,000 1,080 Climbing Philadelphia TRACON
02:19PM 39.8667 -75.1500 205° Southwest 327 376 10,000 540 Level Philadelphia TRACON
02:21PM 39.7089 -75.2569 208° Southwest 334 384 11,700 1,200 Climbing Washington Center
02:22PM 39.6236 -75.3058 204° Southwest 334 384 13,800 2,040 Climbing Washington Center
02:23PM 39.5319 -75.3253 189° South 339 390 15,900 1,620 Climbing Washington Center
02:24PM 39.4383 -75.3389 186° South 344 396 17,100 1,560 Climbing Washington Center
02:25PM 39.3383 -75.3581 188° South 354 407 19,000 1,920 Climbing Washington Center
02:26PM 39.2383 -75.3772 188° South 359 413 21,100 1,440 Climbing Washington Center
02:27PM 39.1319 -75.3964 188° South 375 432 22,000 1,080 Climbing Washington Center
02:28PM 39.0256 -75.4153 188° South 381 438 23,300 1,500 Climbing Washington Center
02:29PM 38.9300 -75.4717 205° Southwest 387 445 25,000 1,500 Climbing Washington Center
02:30PM 38.8300 -75.5331 206° Southwest 387 445 26,400 1,380 Climbing Washington Center
02:31PM 38.7278 -75.5969 206° Southwest 407 468 27,900 1,440 Climbing Washington Center
02:32PM 38.6236 -75.6633 206° Southwest 412 474 29,400 1,320 Climbing Washington Center
02:33PM 38.5172 -75.7297 206° Southwest 419 482 30,600 1,260 Climbing Washington Center
02:34PM 38.4106 -75.7958 206° Southwest 425 489 31,900 660 Climbing Washington Center
02:35PM 38.3064 -75.8589 205° Southwest 425 489 32,000  Climbing Washington Center
02:36PM 38.1978 -75.9247 205° Southwest 425 489 32,000  Level Washington Center
02:37PM 38.0892 -75.9900 205° Southwest 425 489 32,000  Level Washington Center
02:38PM 37.9825 -76.0553 206° Southwest 425 489 32,000  Level Washington Center
02:39PM 37.8758 -76.1231 207° Southwest 430 495 32,000  Level Washington Center
02:40PM 37.7672 -76.1881 205° Southwest 430 495 32,000 -60 Level Washington Center
02:41PM 37.6625 -76.2528 206° Southwest 430 495 31,900 -780 Descending Washington Center
02:42PM 37.5536 -76.3147 204° Southwest 430 495 30,500 -1,980 Descending Washington Center
02:43PM 37.4489 -76.3819 207° Southwest 430 495 28,000 -2,340 Descending Washington Center
02:44PM 37.3464 -76.4408 205° Southwest 425 489 25,900 -1,920 Descending Washington Center
02:45PM 37.2542 -76.5050 209° Southwest 407 468 24,100 -1,020 Descending Washington Center
02:46PM 37.1867 -76.6061 230° Southwest 381 438 23,900 -600 Descending Washington Center
02:47PM 37.1231 -76.7067 232° Southwest 376 433 23,000 -900 Descending Washington Center
02:48PM 37.0469 -76.8253 231° Southwest 376 433 22,000 -720 Descending Washington Center
02:49PM 36.9831 -76.9231 231° Southwest 371 427 21,400 -660 Descending Washington Center
02:50PM 36.9217 -77.0208 232° Southwest 371 427 20,800 -660 Descending Washington Center
02:51PM 36.8600 -77.1183 232° Southwest 366 421 20,200 -420 Descending Washington Center
02:52PM 36.7981 -77.2131 231° Southwest 366 421 20,000 -300 Descending Washington Center
02:53PM 36.7342 -77.3128 231° Southwest 366 421 19,600 -720 Descending Washington Center
02:54PM 36.6744 -77.4072 232° Southwest 361 415 18,600 -960 Descending Washington Center
02:55PM 36.6147 -77.4939 229° Southwest 355 409 17,800 -960 Descending Washington Center
02:56PM 36.5547 -77.5856 231° Southwest 355 409 16,800 -1,020 Descending Washington Center
02:57PM 36.4947 -77.6794 232° Southwest 348 400 15,800 -1,020 Descending Washington Center
02:58PM 36.4347 -77.7708 231° Southwest 348 400 14,800 -960 Descending Washington Center
02:59PM 36.3831 -77.8494 231° Southwest 348 400 13,900 -1,020 Descending Washington Center
03:00PM 36.3336 -77.9228 230° Southwest 331 381 13,100 -1,080 Descending Washington Center
03:01PM 36.2714 -78.0164 231° Southwest 323 372 12,000 -1,200 Descending Washington Center
03:02PM 36.2156 -78.0969 229° Southwest 317 365 10,700 -1,200 Descending Washington Center
03:03PM 36.1803 -78.1858 244° Southwest 291 335 9,800 -1,260 Descending Washington Center
03:04PM 36.1511 -78.2672 246° West 268 308 8,300 -1,560 Descending Washington Center
03:05PM 36.1178 -78.3614 246° West 266 306 6,700 -1,260 Descending Washington Center
03:06PM 36.0933 -78.4297 246° West 261 300 5,900 -1,500 Descending Washington Center
03:07PM 36.0575 -78.5261 245° Southwest 247 284 3,600 -1,260 Descending Washington Center
03:08PM 36.0328 -78.5997 247° West 248 285 3,000 -300 Descending Washington Center
03:09PM 35.9939 -78.6547 229° Southwest 220 253 3,000 -540 Level Washington Center
03:10PM 35.9592 -78.6994 226° Southwest 201 231 2,100 -900 Descending Washington Center
03:11PM 35.9269 -78.7394 225° Southwest 164 189 1,400 -780 Descending Washington Center
03:12PM 35.9011 -78.7717 225° Southwest 121 139 700 -720 Descending Washington Center
03:14PM 35.8776 -78.7875 219° Southwest  Level Estimated